Time;durP1;ratioP1;P1;durP2;ratioP2;P2;SDS_P1;SDS_P2;PMS_P1;PMS_P2;Temp;Humidity;BMP_temperature;BMP_pressure;BME280_temperature;BME280_humidity;BME280_pressure;Samples;Min_cycle;Max_cycle;Signal;HPM_P1;HPM_P2
2021/03/09 00:01:31;;;;;;;14.07;7.65;;;8.10;50.20;;;;;;4998190;28;20057;-62
2021/03/09 00:03:57;;;;;;;14.70;8.05;;;8.10;50.40;;;;;;5001058;28;20107;-62
2021/03/09 00:06:22;;;;;;;20.08;8.18;;;8.10;50.60;;;;;;5008334;28;20044;-62
2021/03/09 00:08:48;;;;;;;18.92;8.25;;;8.10;50.70;;;;;;5007311;28;20523;-63
2021/03/09 00:11:16;;;;;;;16.05;8.13;;;8.10;50.80;;;;;;5006326;28;20034;-63
2021/03/09 00:13:41;;;;;;;22.75;8.27;;;8.00;51.00;;;;;;5012682;28;20489;-62
2021/03/09 00:16:09;;;;;;;22.95;8.90;;;8.00;51.20;;;;;;5008071;28;20044;-62
2021/03/09 00:18:34;;;;;;;21.75;9.05;;;8.00;51.30;;;;;;5010248;28;20048;-62
2021/03/09 00:21:00;;;;;;;18.25;9.20;;;8.00;51.50;;;;;;5012888;28;20042;-62
2021/03/09 00:23:28;;;;;;;22.02;9.68;;;7.90;51.60;;;;;;5012516;28;20038;-62
2021/03/09 00:25:54;;;;;;;20.60;9.00;;;;;;;;;;5007717;28;20040;-63
2021/03/09 00:28:25;;;;;;;22.70;9.30;;;;;;;;;;5011445;28;20037;-62
2021/03/09 00:30:51;;;;;;;19.20;9.88;;;;;;;;;;5010926;28;20034;-62
2021/03/09 00:33:19;;;;;;;21.13;9.70;;;;;;;;;;5015955;28;20041;-63
2021/03/09 00:35:48;;;;;;;24.50;9.85;;;;;;;;;;5004824;28;20528;-62
2021/03/09 00:38:14;;;;;;;22.40;10.30;;;;;;;;;;5005832;28;20045;-62
2021/03/09 00:40:40;;;;;;;20.90;10.57;;;;;;;;;;5007535;28;20038;-63
2021/03/09 00:43:06;;;;;;;24.20;10.50;;;;;;;;;;5006489;28;20125;-63
2021/03/09 00:45:32;;;;;;;21.05;11.38;;;;;;;;;;5010887;28;20034;-63
2021/03/09 00:47:58;;;;;;;26.70;10.50;;;;;;;;;;5016895;28;20136;-63
2021/03/09 00:50:24;;;;;;;21.77;10.90;;;;;;;;;;5011934;28;20036;-63
2021/03/09 00:52:53;;;;;;;23.88;10.65;;;;;;;;;;5005747;28;20034;-62
2021/03/09 00:55:19;;;;;;;22.40;10.65;;;;;;;;;;5013591;28;20545;-63
2021/03/09 00:57:53;;;;;;;26.38;11.40;;;;;;;;;;5013043;28;20071;-63
2021/03/09 01:00:19;;;;;;;29.70;11.82;;;;;;;;;;5011991;28;20643;-62
2021/03/09 01:02:45;;;;;;;30.17;12.45;;;;;;;;;;5011395;28;20034;-63
2021/03/09 01:05:12;;;;;;;27.55;12.20;;;;;;;;;;5010657;28;20038;-63
2021/03/09 01:07:37;;;;;;;22.33;10.98;;;;;;;;;;5008760;28;20284;-63
2021/03/09 01:10:04;;;;;;;25.75;12.55;;;;;;;;;;4998904;28;20042;-62
2021/03/09 01:12:29;;;;;;;30.33;12.43;;;;;;;;;;5003287;28;20034;-64
2021/03/09 01:14:56;;;;;;;30.33;12.40;;;;;;;;;;5012525;28;20096;-63
2021/03/09 01:17:22;;;;;;;25.92;12.52;;;;;;;;;;5007678;28;20056;-63
2021/03/09 01:19:48;;;;;;;31.65;13.30;;;;;;;;;;5008220;28;20144;-63
2021/03/09 01:22:14;;;;;;;27.30;13.27;;;;;;;;;;5003394;28;20065;-62
2021/03/09 01:24:40;;;;;;;34.10;14.30;;;;;;;;;;5010828;28;20045;-63
2021/03/09 01:27:08;;;;;;;28.20;13.25;;;;;;;;;;5006829;28;20035;-62
2021/03/09 01:29:37;;;;;;;36.42;15.73;;;;;;;;;;5007903;28;20087;-62
2021/03/09 01:32:03;;;;;;;43.35;15.45;;;;;;;;;;5008112;28;20042;-63
2021/03/09 01:34:29;;;;;;;42.75;16.63;;;;;;;;;;5008241;28;20034;-62
2021/03/09 01:36:55;;;;;;;35.70;14.48;;;;;;;;;;5011636;28;20377;-62
2021/03/09 01:39:21;;;;;;;38.95;16.75;;;;;;;;;;5012982;28;24386;-62
2021/03/09 01:41:47;;;;;;;37.05;15.50;;;;;;;;;;5001120;28;20041;-63
2021/03/09 01:44:13;;;;;;;34.58;15.98;;;;;;;;;;5005600;28;20122;-62
2021/03/09 01:46:40;;;;;;;35.80;16.95;;;;;;;;;;5007277;28;20532;-62
2021/03/09 01:49:07;;;;;;;42.05;17.55;;;;;;;;;;5009309;28;20304;-62
2021/03/09 01:51:35;;;;;;;36.67;17.17;;;;;;;;;;5006443;28;20056;-62
2021/03/09 01:54:01;;;;;;;35.80;16.73;;;;;;;;;;5012443;28;20045;-62
2021/03/09 01:56:27;;;;;;;36.90;16.85;;;;;;;;;;4999231;28;20037;-62
2021/03/09 01:58:54;;;;;;;50.85;18.10;;;;;;;;;;5010533;28;20168;-62
2021/03/09 02:01:20;;;;;;;42.80;17.83;;;;;;;;;;5006510;28;20474;-62
2021/03/09 02:03:46;;;;;;;44.03;17.65;;;;;;;;;;5007725;28;20033;-62
2021/03/09 02:06:15;;;;;;;43.08;18.85;;;;;;;;;;5008083;28;20980;-62
2021/03/09 02:08:42;;;;;;;42.72;19.27;;;;;;;;;;5014620;28;20567;-62
2021/03/09 02:11:12;;;;;;;45.08;19.05;;;;;;;;;;5006502;28;20041;-62
2021/03/09 02:13:56;;;;;;;47.30;18.33;;;;;;;;;;5004284;28;20033;-62
2021/03/09 02:16:25;;;;;;;41.17;18.30;;;;;;;;;;5001554;28;20048;-62
2021/03/09 02:18:57;;;;;;;42.17;19.25;;;;;;;;;;5009690;28;20065;-62
2021/03/09 02:21:42;;;;;;;47.10;18.95;;;;;;;;;;5010868;28;20045;-62
2021/03/09 02:24:08;;;;;;;42.70;18.27;;;;;;;;;;5008256;28;20091;-62
2021/03/09 02:26:43;;;;;;;44.67;19.08;;;;;;;;;;5009235;28;20045;-62
2021/03/09 02:29:28;;;;;;;49.17;20.25;;;;;;;;;;5013453;28;20559;-63
2021/03/09 02:31:58;;;;;;;45.97;19.90;;;;;;;;;;5003222;28;20116;-62
2021/03/09 02:34:31;;;;;;;46.55;19.55;;;;;;;;;;5003535;28;20069;-62
2021/03/09 02:37:01;;;;;;;38.17;18.95;;;;;;;;;;5009344;28;20090;-62
2021/03/09 02:39:28;;;;;;;51.15;19.77;;;;;;;;;;5007622;28;20438;-62
2021/03/09 02:41:57;;;;;;;53.97;21.10;;;;;;;;;;5003273;28;20052;-62
2021/03/09 02:44:25;;;;;;;53.58;21.95;;;;;;;;;;5013273;28;20574;-62
2021/03/09 02:46:51;;;;;;;49.85;20.50;;;;;;;;;;5004601;28;20120;-62
2021/03/09 02:49:21;;;;;;;49.72;19.98;;;;;;;;;;5014483;28;20045;-62
2021/03/09 02:51:48;;;;;;;44.35;20.25;;;;;;;;;;5009877;28;20045;-63
2021/03/09 02:54:15;;;;;;;43.97;19.80;;;;;;;;;;5010475;28;20149;-62
2021/03/09 02:56:44;;;;;;;53.05;21.33;;;;;;;;;;5003491;28;20131;-62
2021/03/09 02:59:14;;;;;;;52.30;20.70;;;;;;;;;;5003654;28;20044;-62
2021/03/09 03:01:44;;;;;;;49.47;21.00;;;;;;;;;;5000143;28;20095;-63
2021/03/09 03:04:13;;;;;;;49.33;20.58;;;;;;;;;;5004106;28;20061;-62
2021/03/09 03:06:39;;;;;;;49.05;20.55;;;;;;;;;;5006012;28;20041;-62
2021/03/09 03:09:08;;;;;;;49.65;19.88;;;;;;;;;;5009061;28;20052;-61
2021/03/09 03:11:34;;;;;;;45.78;20.48;;;;;;;;;;5015497;28;20605;-62
2021/03/09 03:14:04;;;;;;;45.35;20.38;;;;;;;;;;5001374;28;20475;-62
2021/03/09 03:16:31;;;;;;;62.45;22.55;;;;;;;;;;5022594;28;20048;-62
2021/03/09 03:18:59;;;;;;;52.88;21.48;;;;;;;;;;5010713;28;20037;-62
2021/03/09 03:21:26;;;;;;;54.17;21.05;;;;;;;;;;5007410;28;20041;-62
2021/03/09 03:23:53;;;;;;;52.53;22.58;;;;;;;;;;5010190;28;20037;-62
2021/03/09 03:26:20;;;;;;;45.22;21.58;;;;;;;;;;5012595;28;20076;-62
2021/03/09 03:28:47;;;;;;;51.78;22.63;;;;;;;;;;5004002;28;20389;-62
2021/03/09 03:31:16;;;;;;;51.25;21.63;;;;;;;;;;5002638;28;20037;-62
2021/03/09 03:33:42;;;;;;;55.33;21.58;;;;;;;;;;5008853;28;20040;-62
2021/03/09 03:36:08;;;;;;;50.60;21.15;;;;;;;;;;5012567;28;20046;-61
2021/03/09 03:38:35;;;;;;;49.13;20.30;;;;;;;;;;5014422;28;20033;-62
2021/03/09 03:41:01;;;;;;;51.90;20.48;;;;;;;;;;5011239;28;20094;-62
2021/03/09 03:43:30;;;;;;;52.17;22.33;;;;;;;;;;5007798;28;20048;-62
2021/03/09 03:45:56;;;;;;;53.22;21.45;;;;;;;;;;5004515;28;20124;-62
2021/03/09 03:48:22;;;;;;;58.38;21.95;;;;;;;;;;5009656;28;20049;-62
2021/03/09 03:50:51;;;;;;;54.33;21.40;;;;;;;;;;5006576;28;20038;-62
2021/03/09 03:53:22;;;;;;;49.40;21.42;;;;;;;;;;5019199;28;20041;-62
2021/03/09 03:56:06;;;;;;;58.05;22.52;;;;;;;;;;5004705;28;20119;-62
2021/03/09 03:58:47;;;;;;;56.03;22.25;;;;;;;;;;5006172;28;20029;-62
2021/03/09 04:01:14;;;;;;;56.95;22.55;;;;;;;;;;5008836;28;20045;-62
2021/03/09 04:03:40;;;;;;;50.00;21.60;;;;;;;;;;5012911;28;20038;-62
2021/03/09 04:06:07;;;;;;;55.28;22.13;;;;;;;;;;5017976;28;20025;-62
2021/03/09 04:08:34;;;;;;;55.65;22.48;;;;;;;;;;5008737;28;20466;-62
2021/03/09 04:11:04;;;;;;;57.00;23.85;;;;;;;;;;5000110;28;20589;-62
2021/03/09 04:13:31;;;;;;;54.67;23.25;;;;;;;;;;5007322;28;20037;-62
2021/03/09 04:15:57;;;;;;;58.25;22.70;;;;;;;;;;5011822;28;20037;-62
2021/03/09 04:18:24;;;;;;;63.22;24.50;;;;;;;;;;5009333;28;20042;-62
2021/03/09 04:20:50;;;;;;;52.15;23.08;;;;;;;;;;5007636;28;20033;-62
2021/03/09 04:23:16;;;;;;;53.40;22.45;;;;;;;;;;5004981;28;20052;-61
2021/03/09 04:25:43;;;;;;;62.80;22.73;;;;;;;;;;5007405;28;20034;-62
2021/03/09 04:28:10;;;;;;;59.78;22.63;;;;;;;;;;5007271;28;20041;-62
2021/03/09 04:30:36;;;;;;;50.88;21.55;;;;;;;;;;4997563;28;20038;-62
2021/03/09 04:33:02;;;;;;;56.47;23.13;;;;;;;;;;5003608;28;20034;-62
2021/03/09 04:35:28;;;;;;;55.00;22.73;;;;;;;;;;5007573;28;20033;-63
2021/03/09 04:37:56;;;;;;;60.55;22.70;;;;;;;;;;5003409;28;20144;-62
2021/03/09 04:40:25;;;;;;;56.00;23.42;;;;;;;;;;4996978;28;20056;-61
2021/03/09 04:42:54;;;;;;;69.40;24.15;;;;;;;;;;4998602;28;20200;-62
2021/03/09 04:45:22;;;;;;;60.83;23.45;;;;;;;;;;5007060;28;20041;-62
2021/03/09 04:47:48;;;;;;;58.55;24.00;;;;;;;;;;5007518;28;20095;-61
2021/03/09 04:50:17;;;;;;;61.97;23.35;;;;;;;;;;5009154;28;20041;-62
2021/03/09 04:52:48;;;;;;;63.50;23.30;;;;;;;;;;5010286;28;20104;-62
2021/03/09 04:55:17;;;;;;;61.97;23.90;;;;;;;;;;5004797;28;20033;-62
2021/03/09 04:57:43;;;;;;;61.33;23.77;;;;;;;;;;5003377;28;20275;-62
2021/03/09 05:00:11;;;;;;;66.25;24.48;;;;;;;;;;5010450;28;20036;-62
2021/03/09 05:02:39;;;;;;;59.42;24.30;;;;;;;;;;5001087;28;20049;-61
2021/03/09 05:05:05;;;;;;;59.25;24.10;;;;;;;;;;4995829;28;20158;-62
2021/03/09 05:07:31;;;;;;;67.28;24.45;;;;;;;;;;5006397;28;20041;-62
2021/03/09 05:09:57;;;;;;;64.47;24.98;;;;;;;;;;5004935;28;20041;-62
2021/03/09 05:12:25;;;;;;;57.35;23.50;;;;;;;;;;4991909;28;20042;-63
2021/03/09 05:14:51;;;;;;;64.38;25.00;;;;;;;;;;5003209;28;20063;-62
2021/03/09 05:17:17;;;;;;;59.78;24.38;;;;;;;;;;5005081;28;20555;-62
2021/03/09 05:19:43;;;;;;;69.03;25.00;;;;;;;;;;5003914;28;22043;-62
2021/03/09 05:22:09;;;;;;;62.22;23.60;;;;;;;;;;5005184;28;20100;-61
2021/03/09 05:24:35;;;;;;;63.72;22.55;;;;;;;;;;4994774;28;20236;-61
2021/03/09 05:27:01;;;;;;;67.20;24.95;;;;;;;;;;5005527;28;20043;-62
2021/03/09 05:29:27;;;;;;;68.05;24.23;;;;;;;;;;5006866;28;20132;-61
2021/03/09 05:31:53;;;;;;;59.80;24.17;;;;;;;;;;5001673;28;20042;-61
2021/03/09 05:34:19;;;;;;;68.20;24.38;;;;;;;;;;5002762;28;20044;-61
2021/03/09 05:36:45;;;;;;;60.30;22.98;;;;;;;;;;4999663;28;20121;-62
2021/03/09 05:39:13;;;;;;;64.13;24.58;;;;;;;;;;5003921;28;20145;-63
2021/03/09 05:41:41;;;;;;;58.92;24.42;;;;;;;;;;5004141;28;20056;-62
2021/03/09 05:44:07;;;;;;;72.68;24.50;;;;;;;;;;5006947;28;20168;-62
2021/03/09 05:46:33;;;;;;;60.25;24.38;;;;;;;;;;5006326;28;20037;-62
2021/03/09 05:48:59;;;;;;;68.93;25.60;;;;;;;;;;5010324;28;20076;-61
2021/03/09 05:51:27;;;;;;;68.07;24.92;;;;;;;;;;5007091;28;20064;-62
2021/03/09 05:53:52;;;;;;;65.82;24.70;;;;;;;;;;5000899;28;20041;-62
2021/03/09 05:56:19;;;;;;;62.60;24.75;;;;;;;;;;4999991;28;20044;-62
2021/03/09 05:58:45;;;;;;;69.20;25.90;;;;;;;;;;5003490;28;20048;-61
2021/03/09 06:01:13;;;;;;;76.78;26.85;;;;;;;;;;5010466;28;20034;-62
2021/03/09 06:03:39;;;;;;;64.15;24.85;;;;;;;;;;5009988;28;20097;-62
2021/03/09 06:06:05;;;;;;;65.05;25.52;;;;;;;;;;4999403;28;20551;-62
2021/03/09 06:08:31;;;;;;;77.80;27.00;;;;;;;;;;5008926;28;20096;-61
2021/03/09 06:11:29;;;;;;;62.42;24.10;;;;;;;;;;5011016;28;20048;-62
2021/03/09 06:13:55;;;;;;;75.20;24.77;;;;;;;;;;5007366;28;20117;-62
2021/03/09 06:16:21;;;;;;;71.63;26.50;;;;;;;;;;5006410;28;20387;-62
2021/03/09 06:18:58;;;;;;;76.47;27.67;;;;;;;;;;5009080;28;20042;-62
2021/03/09 06:21:25;;;;;;;72.57;26.63;;;;;;;;;;5008367;28;20148;-62
2021/03/09 06:23:51;;;;;;;74.68;27.75;;;;;;;;;;5009628;28;20018;-62
2021/03/09 06:26:34;;;;;;;79.15;28.17;;;;;;;;;;5006555;28;20037;-61
2021/03/09 06:29:11;;;;;;;72.10;27.52;;;;;;;;;;5008738;28;20109;-62
2021/03/09 06:31:37;;;;;;;91.15;29.15;;;;;;;;;;5013914;28;20271;-62
2021/03/09 06:34:21;;;;;;;77.20;29.15;;;;;;;;;;5003287;28;20040;-62
2021/03/09 06:37:02;;;;;;;75.35;29.05;;;;;;;;;;5003577;28;20079;-62
2021/03/09 06:39:41;;;;;;;87.75;30.50;;;;;;;;;;5006544;28;20033;-62
2021/03/09 06:42:08;;;;;;;90.13;30.35;;;;;;;;;;4997845;28;20056;-62
2021/03/09 06:44:33;;;;;;;87.38;31.08;;;;;;;;;;4986190;28;20457;-62
2021/03/09 06:46:59;;;;;;;79.93;29.38;;;;;;;;;;5001524;28;20183;-62
2021/03/09 06:49:25;;;;;;;76.95;28.55;;;;;;;;;;4995055;28;20507;-62
2021/03/09 06:51:51;;;;;;;77.97;29.05;;;;;;;;;;5016286;28;20037;-62
2021/03/09 06:54:17;;;;;;;77.18;29.10;;;;;;;;;;5012190;28;20400;-62
2021/03/09 06:56:44;;;;;;;86.78;29.48;;;;;;;;;;5007155;28;20049;-62
2021/03/09 06:59:22;;;;;;;79.72;28.77;;;;;;;;;;4996286;28;20041;-61
2021/03/09 07:02:07;;;;;;;76.57;27.90;;;;;;;;;;5003095;28;20060;-61
2021/03/09 07:04:37;;;;;;;85.07;27.48;;;;;;;;;;5001041;28;20034;-61
2021/03/09 07:07:04;;;;;;;74.78;27.92;;;;;;;;;;5001276;28;20460;-61
2021/03/09 07:09:30;;;;;;;70.72;27.80;;;;;;;;;;5005444;28;20041;-61
2021/03/09 07:11:57;;;;;;;78.35;29.85;;;;;;;;;;5007568;28;20037;-61
2021/03/09 07:14:23;;;;;;;77.88;27.75;;;;;;;;;;4998597;28;20563;-61
2021/03/09 07:16:52;;;;;;;80.18;29.02;;;;;;;;;;5000956;28;20061;-62
2021/03/09 07:19:25;;;;;;;78.88;29.58;;;;;;;;;;5002957;28;20195;-62
2021/03/09 07:21:52;;;;;;;82.95;31.02;;;;;;;;;;4998736;28;20042;-62
2021/03/09 07:24:21;;;;;;;84.15;30.85;;;;;;;;;;5004227;28;20049;-62
2021/03/09 07:26:48;;;;;;;90.70;32.38;;;;;;;;;;5009718;28;20033;-62
2021/03/09 07:29:15;;;;;;;80.68;29.25;;;;;;;;;;5009245;28;20033;-62
2021/03/09 07:31:43;;;;;;;67.72;26.50;;;;;;;;;;4999992;28;20564;-62
2021/03/09 07:34:14;;;;;;;80.45;29.05;;;;;;;;;;5011461;28;20673;-62
2021/03/09 07:36:40;;;;;;;84.00;31.13;;;;;;;;;;4997253;28;20052;-62
2021/03/09 07:39:06;;;;;;;81.40;28.90;;;;;;;;;;5000230;28;20045;-62
2021/03/09 07:41:33;;;;;;;80.70;29.48;;;;;;;;;;5001234;28;20052;-62
2021/03/09 07:43:59;;;;;;;78.93;30.10;;;;;;;;;;5002047;28;20029;-62
2021/03/09 07:46:26;;;;;;;75.85;27.13;;;;;;;;;;5014825;28;20067;-62
2021/03/09 07:48:55;;;;;;;66.30;26.83;;;;;;;;;;5006782;28;20045;-63
2021/03/09 07:51:22;;;;;;;63.40;26.45;;;;;;;;;;4999652;28;20657;-62
2021/03/09 07:54:17;;;;;;;70.35;27.20;;;;;;;;;;5003162;28;20046;-63
2021/03/09 07:57:04;;;;;;;70.38;27.35;;;;;;;;;;4997313;28;20856;-63
2021/03/09 07:59:30;;;;;;;70.03;27.17;;;;;;;;;;5002607;28;20719;-63
2021/03/09 08:01:57;;;;;;;65.35;26.52;;;;;;;;;;4995438;28;20037;-63
2021/03/09 08:04:23;;;;;;;71.18;26.92;;;;;;;;;;5009260;28;20080;-63
2021/03/09 08:06:49;;;;;;;66.70;26.70;;;;;;;;;;5008343;28;20037;-63
2021/03/09 08:09:41;;;;;;;65.30;26.23;;;;;;;;;;5008337;28;20581;-63
2021/03/09 08:12:23;;;;;;;65.90;27.10;;;;;;;;;;5012160;28;20532;-63
2021/03/09 08:14:49;;;;;;;69.65;27.35;;;;;;;;;;5018289;28;20041;-62
2021/03/09 08:17:27;;;;;;;76.95;28.63;;;;;;;;;;5011322;28;20091;-64
2021/03/09 08:19:53;;;;;;;64.45;25.27;;;;;;;;;;5005429;28;20037;-64
2021/03/09 08:22:36;;;;;;;60.88;27.13;;;;;;;;;;5003198;28;20473;-64
2021/03/09 08:25:04;;;;;;;68.28;28.33;;;;;;;;;;5012948;28;20033;-64
2021/03/09 08:27:36;;;;;;;66.22;26.75;;;;;;;;;;5014779;28;20037;-63
2021/03/09 08:30:10;;;;;;;63.13;28.25;;;;;;;;;;5014247;28;20121;-64
2021/03/09 08:32:38;;;;;;;64.00;26.77;;;;;;;;;;5012513;28;20037;-64
2021/03/09 08:35:15;;;;;;;69.43;26.95;;;;;;;;;;5008937;28;20061;-64
2021/03/09 08:37:45;;;;;;;61.25;25.77;;;;;;;;;;5015298;28;20044;-64
2021/03/09 08:40:15;;;;;;;57.15;25.77;;;;;;;;;;5005907;28;20037;-64
2021/03/09 08:43:10;;;;;;;63.92;27.52;;;;;;;;;;5005210;28;20037;-64
2021/03/09 08:45:40;;;;;;;59.97;26.52;;;;;;;;;;4991537;28;20622;-64
2021/03/09 08:48:07;;;;;;;67.07;27.83;;;;;;;;;;5006348;28;20503;-64
2021/03/09 08:50:43;;;;;;;59.10;26.77;;;;;;;;;;5008069;28;20218;-64
2021/03/09 08:53:27;;;;;;;64.07;26.33;;;;;;;;;;5003904;28;20072;-64
2021/03/09 08:55:54;;;;;;;65.18;25.52;;;;;;;;;;5011397;28;20509;-62
2021/03/09 08:58:20;;;;;;;64.80;26.70;;;;;;;;;;5001929;28;20132;-63
2021/03/09 09:00:46;;;;;;;56.42;26.08;;;;;;;;;;5003261;28;20049;-64
2021/03/09 09:03:12;;;;;;;62.13;26.48;;;;;;;;;;4991569;28;20042;-63
2021/03/09 09:05:38;;;;;;;62.08;28.30;;;;;;;;;;5006665;28;20045;-63
2021/03/09 09:08:04;;;;;;;60.65;26.90;;;;;;;;;;5006668;28;20030;-63
2021/03/09 09:10:30;;;;;;;60.75;26.83;;;;;;;;;;5006043;28;20037;-64
2021/03/09 09:12:56;;;;;;;59.13;26.35;;;;;;;;;;5005679;28;20053;-64
2021/03/09 09:15:33;;;;;;;58.83;26.23;;;;;;;;;;4993324;28;20037;-64
2021/03/09 09:18:00;;;;;;;59.35;25.15;;;;;;;;;;5008515;28;20030;-63
2021/03/09 09:20:32;;;;;;;64.22;26.48;;;;;;;;;;5000508;28;20049;-63
2021/03/09 09:23:08;;;;;;;63.00;27.08;;;;;;;;;;4997409;28;20083;-64
2021/03/09 09:25:38;;;;;;;61.22;27.42;;;;;;;;;;5005297;28;20042;-63
2021/03/09 09:28:06;;;;;;;58.95;25.60;;;;;;;;;;5012920;28;20048;-64
2021/03/09 09:30:37;;;;;;;64.60;27.58;;;;;;;;;;5007820;28;20030;-63
2021/03/09 09:33:05;;;;;;;60.05;26.30;;;;;;;;;;5004839;28;20452;-63
2021/03/09 09:35:31;;;;;;;66.82;27.23;;;;;;;;;;5003965;28;20120;-63
2021/03/09 09:38:08;;;;;;;57.05;27.63;;;;;;;;;;4996817;28;20459;-63
2021/03/09 09:40:39;;;;;;;60.25;26.90;;;;;;;;;;5014999;28;20168;-64
2021/03/09 09:43:11;;;;;;;52.05;24.83;;;;;;;;;;5004558;28;20040;-64
2021/03/09 09:45:49;;;;;;;61.83;27.23;;;;;;;;;;5009076;28;21500;-64
2021/03/09 09:48:16;;;;;;;71.07;28.77;;;;;;;;;;5005506;28;20182;-64
2021/03/09 09:51:03;;;;;;;66.18;28.15;;;;;;;;;;5014253;28;20036;-64
2021/03/09 09:53:33;;;;;;;65.63;29.40;;;;;;;;;;5013043;28;20619;-64
2021/03/09 09:56:00;;;;;;;62.42;28.25;;;;;;;;;;5011622;28;20036;-64
2021/03/09 09:58:44;;;;;;;66.63;28.42;;;;;;;;;;5009513;28;20030;-64
2021/03/09 10:01:36;;;;;;;65.93;28.13;;;;;;;;;;5013877;28;20497;-63
2021/03/09 10:04:03;;;;;;;71.03;30.23;;;;;;;;;;4999648;28;20061;-64
2021/03/09 10:06:30;;;;;;;66.68;28.42;;;;;;;;;;5010633;28;20075;-64
2021/03/09 10:09:09;;;;;;;66.28;29.20;;;;;;;;;;5006261;28;20076;-64
2021/03/09 10:11:44;;;;;;;68.18;29.63;;;;;;;;;;5000597;28;20083;-64
2021/03/09 10:14:13;;;;;;;74.38;29.08;;;;;;;;;;5002933;28;20124;-64
2021/03/09 10:16:39;;;;;;;70.28;30.35;;;;;;;;;;5002369;28;20618;-64
2021/03/09 10:19:06;;;;;;;65.53;29.52;;;;;;;;;;5007337;28;20033;-64
2021/03/09 10:21:33;;;;;;;67.55;29.85;;;;;;;;;;5004344;28;20199;-64
2021/03/09 10:24:00;;;;;;;69.32;30.65;;;;;;;;;;5005721;28;20063;-63
2021/03/09 10:26:31;;;;;;;64.45;29.45;;;;;;;;;;5016664;28;20609;-63
2021/03/09 10:29:04;;;;;;;71.43;31.27;;;;;;;;;;5009578;28;20099;-64
2021/03/09 10:31:50;;;;;;;71.15;31.13;;;;;;;;;;5010268;28;20471;-63
2021/03/09 10:34:21;;;;;;;66.07;30.35;;;;;;;;;;5007408;28;20073;-64
2021/03/09 10:36:47;;;;;;;71.82;31.40;;;;;;;;;;5006565;28;20409;-63
2021/03/09 10:39:13;;;;;;;69.88;30.73;;;;;;;;;;5006548;28;20052;-64
2021/03/09 10:41:39;;;;;;;63.33;28.85;;;;;;;;;;5009549;28;20405;-63
2021/03/09 10:44:05;;;;;;;65.22;29.67;;;;;;;;;;5003619;28;20037;-63
2021/03/09 10:46:34;;;;;;;75.00;31.02;;;;;;;;;;5009356;28;20042;-63
2021/03/09 10:49:02;;;;;;;71.85;30.38;;;;;;;;;;4999493;28;20088;-64
2021/03/09 10:51:29;;;;;;;73.75;29.88;;;;;;;;;;5005810;28;20048;-63
2021/03/09 10:53:55;;;;;;;63.78;30.20;;;;;;;;;;5003262;28;20054;-63
2021/03/09 10:56:21;;;;;;;68.97;29.90;;;;;;;;;;5000972;28;20117;-63
2021/03/09 10:58:47;;;;;;;70.07;31.02;;;;;;;;;;5003364;28;20340;-63
2021/03/09 11:01:12;;;;;;;76.75;31.38;;;;;;;;;;5001742;28;20040;-63
2021/03/09 11:03:38;;;;;;;76.70;31.40;;;;;;;;;;5004889;28;20136;-63
2021/03/09 11:06:04;;;;;;;74.28;32.05;;;;;;;;;;5001805;28;20100;-63
2021/03/09 11:08:30;;;;;;;72.50;30.55;;;;;;;;;;5005709;28;20038;-62
2021/03/09 11:10:59;;;;;;;74.50;32.03;;;;;;;;;;4999588;28;20037;-63
2021/03/09 11:13:25;;;;;;;68.10;30.58;;;;;;;;;;5001988;28;20213;-63
2021/03/09 11:15:51;;;;;;;74.93;29.85;;;;;;;;;;5003054;28;20038;-62
2021/03/09 11:18:17;;;;;;;69.85;30.00;;;;;;;;;;5002943;28;20160;-63
2021/03/09 11:20:43;;;;;;;79.60;31.42;;;;;;;;;;5008806;28;20481;-63
2021/03/09 11:23:09;;;;;;;70.18;29.45;;;;;;;;;;4998351;28;20399;-62
2021/03/09 11:25:37;;;;;;;70.32;29.65;;;;;;;;;;5008798;28;20063;-62
2021/03/09 11:28:03;;;;;;;71.75;30.17;;;;;;;;;;5008971;28;20607;-62
2021/03/09 11:30:29;;;;;;;72.47;31.73;;;;;;;;;;5002894;28;20038;-62
2021/03/09 11:32:55;;;;;;;71.78;30.65;;;;;;;;;;4993259;28;20045;-62
2021/03/09 11:35:24;;;;;;;71.70;31.90;;;;;;;;;;5001824;28;20034;-62
2021/03/09 11:37:50;;;;;;;77.50;31.75;;;;;;;;;;4998734;28;20042;-61
2021/03/09 11:40:16;;;;;;;73.55;30.75;;;;;;;;;;5012461;28;20513;-61
2021/03/09 11:42:42;;;;;;;74.95;31.17;;;;;;;;;;5004904;28;20596;-61
2021/03/09 11:45:08;;;;;;;73.00;30.65;;;;;;;;;;5004092;28;20040;-62
2021/03/09 11:47:34;;;;;;;74.25;31.10;;;;;;;;;;5009394;28;20596;-61
2021/03/09 11:50:00;;;;;;;75.40;30.92;;;;;;;;;;5008109;28;20038;-61
2021/03/09 11:52:26;;;;;;;76.95;32.45;;;;;;;;;;5009308;28;20048;-62
2021/03/09 11:54:55;;;;;;;71.65;29.85;;;;;;;;;;5011824;28;20128;-62
2021/03/09 11:57:21;;;;;;;70.63;29.80;;;;;;;;;;5000481;28;20033;-62
2021/03/09 11:59:47;;;;;;;66.72;29.88;;;;;;;;;;5016704;28;20037;-61
2021/03/09 12:02:12;;;;;;;63.83;27.95;;;;;;;;;;5005242;28;20443;-62
2021/03/09 12:04:40;;;;;;;73.72;30.75;;;;;;;;;;5008647;28;20584;-62
2021/03/09 12:07:06;;;;;;;65.45;28.25;;;;;;;;;;5013246;28;20040;-62
2021/03/09 12:09:32;;;;;;;70.43;29.38;;;;;;;;;;5006489;28;20045;-62
2021/03/09 12:11:58;;;;;;;62.38;27.90;;;;;;;;;;5010171;28;20122;-62
2021/03/09 12:14:24;;;;;;;63.55;28.15;;;;;;;;;;5011653;28;20053;-62
2021/03/09 12:16:50;;;;;;;68.32;29.08;;;;;;;;;;5009950;28;20034;-62
2021/03/09 12:19:16;;;;;;;76.05;29.63;;;;;;;;;;5006265;28;20516;-62
2021/03/09 12:21:42;;;;;;;68.45;29.70;;;;;;;;;;5010367;28;20913;-62
2021/03/09 12:24:08;;;;;;;73.38;29.90;;;;;;;;;;5011983;28;20050;-63
2021/03/09 12:26:35;;;;;;;67.35;28.30;;;;;;;;;;5011633;28;20049;-62
2021/03/09 12:29:01;;;;;;;66.65;29.42;;;;;;;;;;5015764;28;20034;-62
2021/03/09 12:31:27;;;;;;;69.68;29.30;;;;;;;;;;5008360;28;20041;-62
2021/03/09 12:33:53;;;;;;;69.60;30.05;;;;;;;;;;5014356;28;20060;-62
2021/03/09 12:36:18;;;;;;;69.55;28.65;;;;;;;;;;5009679;28;20038;-62
2021/03/09 12:38:44;;;;;;;71.32;29.30;;;;;;;;;;5007609;28;20037;-62
2021/03/09 12:41:10;;;;;;;63.17;28.30;;;;;;;;;;5011168;28;20330;-62
2021/03/09 12:43:36;;;;;;;65.20;28.92;;;;;;;;;;5005169;28;20038;-62
2021/03/09 12:46:04;;;;;;;66.80;28.17;;;;;;;;;;4998735;28;20034;-62
2021/03/09 12:48:30;;;;;;;63.08;26.83;;;;;;;;;;5013861;28;20600;-63
2021/03/09 12:50:56;;;;;;;60.90;26.30;;;;;;;;;;4998985;28;20136;-62
2021/03/09 12:53:23;;;;;;;58.33;26.65;;;;;;;;;;5008626;28;20052;-62
2021/03/09 12:55:51;;;;;;;57.88;25.65;;;;;;;;;;5003352;28;20052;-62
2021/03/09 12:58:18;;;;;;;54.83;23.90;;;;;;;;;;5007463;28;20037;-63
2021/03/09 13:00:44;;;;;;;52.40;23.83;;;;;;;;;;5006007;28;20037;-62
2021/03/09 13:03:10;;;;;;;53.95;23.10;;;;;;;;;;5006670;28;20063;-62
2021/03/09 13:05:36;;;;;;;56.65;24.92;;;;;;;;;;5004741;28;20042;-63
2021/03/09 13:08:01;;;;;;;48.38;23.60;;;;;;;;;;5008934;28;20034;-63
2021/03/09 13:10:27;;;;;;;57.65;25.25;;;;;;;;;;5013685;28;20056;-63
2021/03/09 13:12:53;;;;;;;53.92;25.40;;;;;;;;;;5010554;28;20501;-63
2021/03/09 13:15:22;;;;;;;49.20;23.48;;;;;;;;;;5007922;28;20087;-63
2021/03/09 13:17:48;;;;;;;55.72;23.90;;;;;;;;;;5011783;28;20036;-63
2021/03/09 13:20:15;;;;;;;53.25;24.45;;;;;;;;;;5002169;28;20117;-64
2021/03/09 13:22:42;;;;;;;50.10;24.50;;;;;;;;;;5001070;28;20086;-64
2021/03/09 13:25:11;;;;;;;52.72;23.40;;;;;;;;;;5005735;28;20034;-63
2021/03/09 13:27:37;;;;;;;49.88;22.38;;;;;;;;;;5009523;28;20412;-64
2021/03/09 13:30:08;;;;;;;48.25;23.20;;;;;;;;;;5014133;28;20882;-63
2021/03/09 13:32:34;;;;;;;44.42;21.73;;;;;;;;;;5010237;28;20045;-63
2021/03/09 13:35:00;;;;;;;48.88;22.80;;;;;;;;;;5014522;28;20041;-64
2021/03/09 13:37:26;;;;;;;47.92;22.98;;;;;;;;;;5004669;28;20614;-64
2021/03/09 13:39:51;;;;;;;45.08;22.65;;;;;;;;;;5005395;28;20831;-63
2021/03/09 13:42:17;;;;;;;43.58;21.42;;;;;;;;;;5005042;28;20072;-64
2021/03/09 13:44:44;;;;;;;48.85;22.75;;;;;;;;;;5000181;28;20041;-64
2021/03/09 13:47:10;;;;;;;43.95;21.75;;;;;;;;;;5009353;28;20045;-66
2021/03/09 13:49:38;;;;;;;46.38;21.55;;;;;;;;;;5005551;28;20121;-64
2021/03/09 13:52:04;;;;;;;47.10;22.00;;;;;;;;;;5001020;28;20153;-64
2021/03/09 13:54:30;;;;;;;42.88;20.60;;;;;;;;;;5010177;28;20519;-64
2021/03/09 13:56:56;;;;;;;52.17;23.85;;;;;;;;;;5001451;28;20045;-64
2021/03/09 13:59:24;;;;;;;48.25;22.73;;;;;;;;;;5002297;28;20041;-64
2021/03/09 14:01:50;;;;;;;48.08;22.33;;;;;;;;;;5006855;28;20524;-63
2021/03/09 14:04:16;;;;;;;48.80;22.63;;;;;;;;;;4999054;28;20057;-64
2021/03/09 14:06:42;;;;;;;50.35;24.23;;;;;;;;;;5006265;28;20397;-64
2021/03/09 14:09:08;;;;;;;41.83;20.50;;;;;;;;;;5001811;28;20041;-63
2021/03/09 14:11:34;;;;;;;44.13;21.77;;;;;;;;;;5007200;28;20037;-64
2021/03/09 14:14:00;;;;;;;43.95;21.23;;;;;;;;;;5006205;28;20694;-63
2021/03/09 14:16:26;;;;;;;43.00;20.83;;;;;;;;;;5006104;28;20336;-63
2021/03/09 14:18:52;;;;;;;46.55;23.17;;;;;;;;;;5000804;28;20489;-64
2021/03/09 14:21:18;;;;;;;47.83;22.27;;;;;;;;;;5000606;28;20042;-63